• Join FlightAware (Why Join?)
  • Login
  • US Flag 
Rudolph Flight #1: Scheduled 
07:36PM EST


 

Airport Tracker/Info


-or-


 

Live Flight TrackerFlight Track Log ✈ VOZ960 ✈ 12-Jul-2013 ✈ YBBN / BNE - YSSY / SYD

Flight Track Log - Related Links

Times and Time Zones

All times are in EDT time to prevent confusion due to time zone crossing. See the VOZ960 flight status page for this flight to view local times or setup timezone preferences in your user account.

Time Position Orientation Groundspeed Altitude Reporting Facility
EDT Latitude Longitude Course Direction KTS MPH feet Rate Location/Type
01:32AM -27.3880 153.1220 84° East 6 7  Level FlightAware
01:33AM -27.3880 153.1230 90° East 11 13 60 Level FlightAware
01:33AM -27.3860 153.1240 24° Northeast 16 18 60 Level FlightAware
01:34AM -27.3850 153.1250 42° Northeast 19 22 60 Level FlightAware
01:34AM -27.3840 153.1260 42° Northeast 19 22 60 Level FlightAware
01:35AM -27.3810 153.1270 16° North 18 21 60 Level FlightAware
01:35AM -27.3790 153.1280 24° Northeast 18 21 60 Level FlightAware
01:35AM -27.3780 153.1290 42° Northeast 17 20 60 Level FlightAware
01:36AM -27.3760 153.1300 24° Northeast 14 16 60 Level FlightAware
01:36AM -27.3750 153.1310 42° Northeast 12 14 60 Level FlightAware
01:38AM -27.3730 153.1310 360° North 6 7 60 Level FlightAware
01:40AM -27.5537 153.1354 193° South  Level FlightAware Approximate
01:41AM -27.6451 153.1003 199° South  Level FlightAware Approximate
01:41AM -27.3730 153.1330 199° South 6 7  Level FlightAware
01:44AM -27.5994 153.1179 199° South  Level FlightAware Approximate
01:45AM -27.6909 153.0829 199° South  Level FlightAware Approximate
01:45AM -27.3730 153.1340 199° South 2 2  Level FlightAware
01:46AM -27.3740 153.1340 180° South 7 8 360 Level FlightAware
01:46AM -27.3750 153.1340 180° South 15 17 540 Level FlightAware
01:46AM -27.3780 153.1320 211° Southwest 84 97 720 Level FlightAware
01:47AM -27.3920 153.1250 204° Southwest 170 196 960 Level FlightAware
01:47AM -27.4110 153.1130 209° Southwest 165 190 900 1,800 Climbing FlightAware
01:47AM -27.4190 153.1110 193° South 170 196 1,200 960 Climbing FlightAware
01:48AM -27.4360 153.1160 165° South 198 228 1,400 1,020 Climbing FlightAware
01:48AM -27.4580 153.1290 152° Southeast 221 254 2,000 1,800 Climbing FlightAware
01:49AM -27.4810 153.1410 152° Southeast 230 265 2,900 2,880 Climbing FlightAware
01:49AM -27.4872 153.1451 152° Southeast 226 260 3,500 1,200 Climbing Aus ATC (RADAR)
01:49AM -27.4970 153.1470 162° South 250 288 3,200 -900 Descending FlightAware
01:49AM -27.5040 153.1470 180° South 258 297 3,300 3,300 Climbing FlightAware
01:49AM -27.5398 153.1384 180° South 255 293 5,200 2,700 Climbing Aus ATC (RADAR)
01:50AM -27.5410 153.1380 180° South 259 298 4,900 360 Descending FlightAware
01:50AM -27.5750 153.1270 196° South 288 331 5,400 1,920 Climbing FlightAware
01:50AM -27.6110 153.1130 196° South 294 338 6,700 3,240 Climbing FlightAware
01:50AM -27.6151 153.1119 196° South 293 337 7,100 2,160 Climbing Aus ATC (RADAR)
01:51AM -27.6440 153.1000 199° South 305 351 7,600 1,860 Climbing FlightAware
01:51AM -27.6880 153.0830 199° South 317 365 8,800 2,400 Climbing FlightAware
01:52AM -27.7450 153.0610 199° South 332 382 10,400 2,280 Climbing FlightAware
01:53AM -27.8110 153.0350 199° South 354 407 12,100 2,580 Climbing FlightAware
01:54AM -27.8830 153.0060 200° South 359 413 14,300 3,240 Climbing FlightAware
01:54AM -27.9450 152.9820 199° South 352 405 16,700 3,420 Climbing FlightAware
01:55AM -27.9932 152.9630 199° South 357 411 18,400 2,400 Climbing Aus ATC (RADAR)
01:55AM -28.0050 152.9580 199° South 363 418 18,300 2,400 Descending FlightAware
01:55AM -28.0574 152.9378 199° South 368 423 20,000 2,640 Climbing Aus ATC (RADAR)
01:56AM -28.0800 152.9290 199° South 368 423 20,300 2,280 Climbing FlightAware
01:56AM -28.1430 152.9020 201° Southwest 367 422 22,100 2,460 Climbing FlightAware
01:57AM -28.2130 152.8700 202° Southwest 369 425 23,800 2,160 Climbing FlightAware
01:58AM -28.2710 152.8440 202° Southwest 376 433 25,000 2,160 Climbing FlightAware
01:58AM -28.3220 152.8219 202° Southwest 376 433 26,200 1,620 Climbing Aus ATC (RADAR)
01:58AM -28.3320 152.8170 202° Southwest 383 441 26,100 1,080 Descending FlightAware
01:59AM -28.3990 152.7870 201° Southwest 390 449 27,100 1,800 Climbing FlightAware
01:59AM -28.4553 152.7616 201° Southwest 391 450 28,300 1,620 Climbing Aus ATC (RADAR)
02:00AM -28.4710 152.7550 201° Southwest 395 455 28,200 1,500 Descending FlightAware
02:00AM -28.5450 152.7220 201° Southwest 388 447 29,700 2,160 Climbing FlightAware
02:01AM -28.6120 152.6920 201° Southwest 374 430 31,300 2,400 Climbing FlightAware
02:02AM -28.6701 152.6659 201° Southwest 367 422 32,700 1,680 Climbing Aus ATC (RADAR)
02:02AM -28.6660 152.6680 201° Southwest 372 428 32,300 480 Descending FlightAware
02:02AM -28.7430 152.6330 202° Southwest 380 437 33,100 1,200 Climbing FlightAware
02:03AM -28.8090 152.6040 201° Southwest 381 438 34,000 1,260 Climbing FlightAware
02:04AM -28.8740 152.5740 202° Southwest 381 438 34,800 1,320 Climbing FlightAware
02:04AM -28.9470 152.5410 202° Southwest 374 430 35,900 1,200 Climbing FlightAware
02:05AM -29.0040 152.5159 202° Southwest 375 432 36,400 120 Climbing Aus ATC (RADAR)
02:05AM -29.0030 152.5160 202° Southwest 374 430 36,000  Descending FlightAware
02:06AM -29.0607 152.4900 202° Southwest 378 435 36,400  Climbing Aus ATC (RADAR)
02:06AM -29.0670 152.4870 202° Southwest 379 436 36,000 -480 Descending FlightAware
02:06AM -29.1420 152.4530 202° Southwest 382 440 36,000  Level FlightAware
02:07AM -29.2070 152.4230 202° Southwest 381 438 36,000  Level FlightAware
02:08AM -29.2740 152.3930 201° Southwest 382 440 36,000  Level FlightAware
02:09AM -29.3490 152.3590 202° Southwest 383 441 36,000  Level FlightAware
02:09AM -29.4130 152.3300 202° Southwest 384 442 36,000  Level FlightAware
02:10AM -29.4720 152.3030 202° Southwest 383 441 36,000 300 Level FlightAware
02:10AM -29.5457 152.2704 202° Southwest 384 442 36,400  Climbing Aus ATC (RADAR)
02:11AM -29.5560 152.2650 202° Southwest 384 442 36,000 -480 Descending FlightAware
02:11AM -29.6360 152.2280 202° Southwest 384 442 36,000  Level FlightAware
02:12AM -29.6960 152.2010 201° Southwest 385 443 36,000  Level FlightAware
02:13AM -29.7570 152.1730 202° Southwest 385 443 36,000  Level FlightAware
02:13AM -29.8290 152.1400 202° Southwest 386 444 36,000  Level FlightAware
02:14AM -29.9010 152.1070 202° Southwest 386 444 36,000 300 Level FlightAware
02:15AM -29.9593 152.0799 202° Southwest 387 445 36,400  Climbing Aus ATC (RADAR)
02:15AM -29.9590 152.0810 202° Southwest 386 444 36,000  Descending FlightAware
02:15AM -30.0428 152.0410 202° Southwest 389 448 36,400  Climbing Aus ATC (RADAR)
02:16AM -30.0270 152.0510 202° Southwest 386 444 36,000 -660 Descending FlightAware
02:16AM -30.0780 152.0280 201° Southwest 386 444 36,000  Level FlightAware
02:17AM -30.1290 152.0050 201° Southwest 386 444 36,000 300 Level FlightAware
02:17AM -30.2197 151.9595 201° Southwest 393 452 36,400  Climbing Aus ATC (RADAR)
02:17AM -30.1800 151.9830 201° Southwest 386 444 36,000 -600 Descending FlightAware
02:18AM -30.2310 151.9600 201° Southwest 386 444 36,000  Level FlightAware
02:19AM -30.2960 151.9310 201° Southwest 386 444 36,000 480 Level FlightAware
02:19AM -30.3724 151.8906 201° Southwest 391 450 36,400 600 Climbing Aus ATC (RADAR)
02:19AM -30.4304 151.8637 201° Southwest 387 445 36,400 -300 Level Aus ATC (RADAR)
02:19AM -30.4360 151.8590 201° Southwest 36,000 -540 Descending FlightAware
02:20AM -30.4970 151.8310 201° Southwest 385 443 36,000 480 Level FlightAware
02:20AM -30.5124 151.8240 201° Southwest 385 443 36,400  Climbing Aus ATC (RADAR)
02:21AM -30.5780 151.7930 202° Southwest 386 444 36,000  Descending FlightAware
02:21AM -30.6287 151.7704 202° Southwest 386 444 36,400  Climbing Aus ATC (RADAR)
02:21AM -30.6440 151.7620 202° Southwest 380 437 36,000  Descending FlightAware
02:22AM -30.6952 151.7395 202° Southwest 387 445 36,400  Climbing Aus ATC (RADAR)
02:22AM -30.7310 151.7210 202° Southwest 380 437 36,000  Descending FlightAware
02:23AM -30.7920 151.6930 202° Southwest 380 437 36,400 1,320 Climbing FlightAware
02:24AM -30.8527 151.6658 202° Southwest 386 444 37,400 1,320 Climbing Aus ATC (RADAR)
02:24AM -30.8620 151.6600 202° Southwest 37,100 1,080 Descending FlightAware
02:24AM -30.9346 151.6263 202° Southwest 384 442 38,300 1,020 Climbing Aus ATC (RADAR)
02:24AM -30.9360 151.6250 202° Southwest 380 437 37,900 120 Descending FlightAware
02:25AM -31.0157 151.5885 202° Southwest 376 433 38,400 120 Climbing Aus ATC (RADAR)
02:25AM -31.0140 151.5880 202° Southwest 364 419 38,000 -900 Descending FlightAware
02:26AM -31.0520 151.5710 201° Southwest 364 419 38,000  Level FlightAware
02:27AM -31.1340 151.5320 202° Southwest 360 414 38,000 240 Level FlightAware
02:27AM -31.1855 151.5082 202° Southwest 356 410 38,400  Climbing Aus ATC (RADAR)
02:27AM -31.1900 151.5050 202° Southwest 359 413 38,000  Descending FlightAware
02:28AM -31.2400 151.4824 202° Southwest 360 414 38,400  Climbing Aus ATC (RADAR)
02:28AM -31.2410 151.4810 202° Southwest 359 413 38,000  Descending FlightAware
02:28AM -31.3089 151.4481 202° Southwest 362 417 38,400  Climbing Aus ATC (RADAR)
02:29AM -31.3170 151.4450 202° Southwest 358 412 38,000 -540 Descending FlightAware
02:29AM -31.3740 151.4180 202° Southwest 358 412 38,000 300 Level FlightAware
02:30AM -31.4307 151.3934 202° Southwest 357 411 38,400  Climbing Aus ATC (RADAR)
02:30AM -31.4420 151.3870 202° Southwest 362 417 38,000 -600 Descending FlightAware
02:30AM -31.4930 151.3650 200° South 364 419 38,000  Level FlightAware
02:31AM -31.5680 151.3310 201° Southwest 366 421 38,000 240 Level FlightAware
02:32AM -31.6236 151.2979 201° Southwest 355 409 38,400  Climbing Aus ATC (RADAR)
02:32AM -31.6260 151.2940 201° Southwest 355 409 38,000 -480 Descending FlightAware
02:33AM -31.6730 151.2250 231° Southwest 346 398 38,000  Level FlightAware
02:33AM -31.6950 151.1550 250° West 348 400 38,000  Level FlightAware
02:34AM -31.7120 151.0900 250° West 350 403 38,000 540 Level FlightAware
02:34AM -31.7169 151.0722 250° West 341 392 38,400  Climbing Aus ATC (RADAR)
02:35AM -31.7280 151.0270 253° West 350 403 38,000  Descending FlightAware
02:35AM -31.7595 150.9394 253° West 348 400 38,400  Climbing Aus ATC (RADAR)
02:35AM -31.7630 150.9370 253° West 352 405 38,000  Descending FlightAware
02:36AM -31.8004 150.8914 253° West 357 411 38,400  Climbing Aus ATC (RADAR)
02:36AM -31.8100 150.8870 253° West 361 415 38,000 -540 Descending FlightAware
02:37AM -31.8740 150.8640 197° South 384 442 38,000 300 Level FlightAware
02:37AM -31.9372 150.8677 197° South 390 449 38,400  Climbing Aus ATC (RADAR)
02:37AM -31.9600 150.8700 197° South 387 445 38,000 -480 Descending FlightAware
02:38AM -32.0320 150.8750 177° South 387 445 38,000 -540 Level FlightAware
02:39AM -32.0835 150.8795 177° South 395 455 37,400 -1,740 Descending Aus ATC (RADAR)
02:39AM -32.1130 150.8810 177° South 384 442 36,700 -1,560 Descending FlightAware
02:39AM -32.1800 150.8870 176° South 370 426 36,000 -1,080 Descending FlightAware
02:40AM -32.2660 150.8940 176° South 322 371 35,100 -720 Descending FlightAware
02:40AM -32.2704 150.8952 176° South 347 399 35,400 -1,440 Climbing Aus ATC (RADAR)
02:41AM -32.3217 150.8988 176° South 322 371 34,200 -3,180 Descending Aus ATC (RADAR)
02:41AM -32.3320 150.8980 176° South 321 369 33,200 -3,720 Descending FlightAware
02:42AM -32.3920 150.9030 176° South 322 371 31,300 -2,700 Descending FlightAware
02:42AM -32.4590 150.9090 176° South 310 357 29,400 -2,640 Descending FlightAware
02:43AM -32.5030 150.9130 176° South 312 359 28,000 -2,340 Descending FlightAware
02:44AM -32.5584 150.9238 176° South 321 369 26,800 -2,700 Descending Aus ATC (RADAR)
02:44AM -32.5700 150.9250 176° South 323 372 26,000 -3,720 Descending FlightAware
02:44AM -32.6300 150.9360 171° South 327 376 23,900 -2,760 Descending FlightAware
02:45AM -32.6820 150.9450 172° South 328 377 22,600 -1,980 Descending FlightAware
02:46AM -32.7490 150.9570 171° South 309 356 21,300 -1,500 Descending FlightAware
02:46AM -32.8070 150.9670 172° South 296 341 20,500 -1,380 Descending FlightAware
02:47AM -32.8680 150.9780 171° South 296 341 19,400 -1,500 Descending FlightAware
02:48AM -32.9150 150.9860 172° South 294 338 18,500 -1,440 Descending FlightAware
02:48AM -32.9760 150.9970 171° South 278 320 17,500 -1,440 Descending FlightAware
02:49AM -33.0290 151.0070 171° South 281 323 16,500 -1,500 Descending FlightAware
02:50AM -33.0810 151.0160 172° South 274 315 15,400 -1,740 Descending FlightAware
02:51AM -33.1400 151.0260 172° South 279 321 13,900 -1,620 Descending FlightAware
02:51AM -33.2061 151.0380 172° South 286 329 13,000 -1,560 Descending Aus ATC (RADAR)
02:52AM -33.2340 151.0430 172° South 281 323 12,100 -1,800 Descending FlightAware
02:52AM -33.2820 151.0530 170° South 276 318 11,200 -1,260 Descending FlightAware
02:53AM -33.3270 151.0610 170° South 276 318 10,600 -1,740 Descending Aus ATC (RADAR)
02:53AM -33.3330 151.0620 170° South 277 319 10,100 -2,040 Descending FlightAware
02:54AM -33.3750 151.0660 175° South 275 316 9,300 -1,380 Descending FlightAware
02:54AM -33.4120 151.0660 180° South 272 313 8,700 -1,200 Descending FlightAware
02:54AM -33.4260 151.0660 180° South 268 308 8,500 -1,020 Descending FlightAware
02:55AM -33.4610 151.0670 179° South 260 299 8,000 -1,320 Descending FlightAware
02:55AM -33.4990 151.0730 172° South 263 303 7,200 -1,500 Descending FlightAware
02:56AM -33.5320 151.0820 167° South 262 302 6,600 -1,440 Descending FlightAware
02:56AM -33.5650 151.0900 169° South 261 300 5,900 -1,620 Descending FlightAware
02:57AM -33.5930 151.0970 168° South 262 302 5,300 -1,020 Descending FlightAware
02:57AM -33.6320 151.1074 168° South 251 289 5,000 -1,140 Descending Aus ATC (RADAR)
02:57AM -33.6300 151.1070 168° South 257 296 4,700 -2,040 Descending FlightAware
02:58AM -33.6590 151.1140 169° South 255 293 4,100 -1,020 Descending FlightAware
02:58AM -33.7070 151.1270 167° South 230 265 3,600 -480 Descending FlightAware
02:59AM -33.7320 151.1320 171° South 215 247 3,600 -120 Level FlightAware
02:59AM -33.7580 151.1380 169° South 212 244 3,500 -780 Descending FlightAware
03:00AM -33.7870 151.1460 167° South 201 231 2,900 -1,140 Descending FlightAware
03:00AM -33.8100 151.1520 168° South 199 229 2,500 -1,020 Descending FlightAware
03:01AM -33.8370 151.1590 168° South 185 213 2,000 -1,020 Descending FlightAware
03:01AM -33.8610 151.1650 168° South 165 190 1,500 -1,020 Descending FlightAware
03:01AM -33.8800 151.1700 168° South 154 177 1,100 -900 Descending FlightAware
03:02AM -33.9020 151.1760 167° South 151 174 700 -900 Descending FlightAware
03:02AM -33.9200 151.1810 167° South 137 158 300 -840 Descending FlightAware
03:03AM -33.9330 151.1840 169° South 135 155 100 -600 Descending FlightAware
03:03AM -33.9430 151.1860 171° South 133 153 -420 Descending FlightAware
03:03AM -33.9610 151.1910 167° South 120 138  Level FlightAware
03:04AM -33.9680 151.1930 167° South 39 45  Level FlightAware
03:04AM -33.9710 151.1930 180° South 16 18  Level FlightAware
03:04AM -33.9710 151.1920 270° West 14 16  Level FlightAware